Time;durP1;ratioP1;P1;durP2;ratioP2;P2;SDS_P1;SDS_P2;PMS_P1;PMS_P2;Temp;Humidity;BMP_temperature;BMP_pressure;BME280_temperature;BME280_humidity;BME280_pressure;Samples;Min_cycle;Max_cycle;Signal;HPM_P1;HPM_P2
2023/03/11 00:02:19;;;;;;;16.58;6.45;;;;;;;11.57;90.37;94738.09;5095090;28;20550;-63
2023/03/11 00:04:48;;;;;;;16.90;6.32;;;;;;;11.61;90.45;94737.78;5095110;28;20101;-63
2023/03/11 00:07:15;;;;;;;16.60;5.78;;;;;;;11.57;90.17;94735.50;5094992;28;20040;-63
2023/03/11 00:09:42;;;;;;;12.48;6.43;;;;;;;11.51;90.65;94718.44;5095067;28;20040;-63
2023/03/11 00:12:09;;;;;;;13.02;5.72;;;;;;;11.52;90.71;94714.88;5094806;28;20050;-63
2023/03/11 00:14:36;;;;;;;17.75;6.13;;;;;;;11.59;90.05;94721.34;5094981;28;20482;-63
2023/03/11 00:17:03;;;;;;;18.42;6.00;;;;;;;11.61;90.04;94721.22;5094667;28;20501;-63
2023/03/11 00:19:31;;;;;;;15.40;6.05;;;;;;;11.58;91.07;94711.81;5094695;28;20127;-63
2023/03/11 00:21:59;;;;;;;11.57;6.20;;;;;;;11.63;90.92;94709.69;5094627;28;20044;-63
2023/03/11 00:24:26;;;;;;;16.88;6.78;;;;;;;11.69;90.92;94710.22;5094739;28;20051;-62
2023/03/11 00:26:53;;;;;;;14.68;5.75;;;;;;;11.74;90.68;94698.47;5094564;28;20076;-63
2023/03/11 00:29:20;;;;;;;15.45;5.40;;;;;;;11.73;90.91;94701.19;5094566;28;20073;-63
2023/03/11 00:31:47;;;;;;;15.95;5.90;;;;;;;11.75;90.75;94701.91;5094456;28;20044;-63
2023/03/11 00:34:14;;;;;;;14.70;5.07;;;;;;;11.68;91.26;94690.22;5094418;28;20374;-63
2023/03/11 00:36:41;;;;;;;17.90;6.85;;;;;;;11.65;91.05;94687.81;5094418;28;20047;-62
2023/03/11 00:39:10;;;;;;;14.00;5.40;;;;;;;11.69;91.19;94694.50;5094486;28;20044;-63
2023/03/11 00:41:37;;;;;;;15.43;5.57;;;;;;;11.66;91.32;94689.47;5094363;28;20455;-63
2023/03/11 00:44:04;;;;;;;15.75;4.97;;;;;;;11.70;91.50;94681.28;5094308;28;20135;-63
2023/03/11 00:46:31;;;;;;;13.20;5.68;;;;;;;11.76;90.58;94674.78;5094101;28;20054;-63
2023/03/11 00:48:58;;;;;;;14.75;5.07;;;;;;;11.75;90.15;94670.50;5094195;28;20052;-63
2023/03/11 00:51:26;;;;;;;17.38;5.15;;;;;;;11.68;90.33;94669.25;5094106;28;20467;-63
2023/03/11 00:53:53;;;;;;;17.00;5.10;;;;;;;11.73;90.69;94665.38;5094042;28;20516;-63
2023/03/11 00:56:22;;;;;;;20.83;5.53;;;;;;;11.70;91.36;94662.13;5094052;28;20079;-63
2023/03/11 00:58:49;;;;;;;13.35;5.03;;;;;;;11.66;91.67;94650.19;5093889;28;20072;-63
2023/03/11 01:01:19;;;;;;;10.00;4.88;;;;;;;11.65;91.80;94643.31;5093807;28;20083;-62
2023/03/11 01:03:47;;;;;;;11.57;5.03;;;;;;;11.66;91.76;94640.56;5093941;28;20048;-63
2023/03/11 01:06:14;;;;;;;18.80;5.95;;;;;;;11.61;92.48;94640.91;5093782;28;20048;-63
2023/03/11 01:08:42;;;;;;;12.73;5.25;;;;;;;11.59;93.43;94647.22;5093742;28;20131;-62
2023/03/11 01:11:09;;;;;;;15.43;6.07;;;;;;;11.60;93.40;94635.78;5093943;28;20044;-63
2023/03/11 01:13:39;;;;;;;15.43;5.78;;;;;;;11.65;93.28;94631.03;5093655;28;20472;-63
2023/03/11 01:16:06;;;;;;;18.58;5.50;;;;;;;11.65;93.70;94620.53;5093683;28;20046;-62
2023/03/11 01:18:33;;;;;;;15.98;6.30;;;;;;;11.66;94.07;94613.53;5093661;28;20045;-63
2023/03/11 01:21:01;;;;;;;17.42;5.60;;;;;;;11.69;93.67;94619.41;5093654;28;20056;-63
2023/03/11 01:23:28;;;;;;;19.85;5.18;;;;;;;11.72;93.81;94619.19;5093687;28;20058;-63
2023/03/11 01:25:55;;;;;;;16.63;5.90;;;;;;;11.74;94.00;94606.78;5093655;28;20052;-63
2023/03/11 01:28:22;;;;;;;13.90;5.47;;;;;;;11.76;93.88;94611.91;5093749;28;20130;-63
2023/03/11 01:30:50;;;;;;;17.92;6.03;;;;;;;11.81;93.86;94601.09;5093402;28;20086;-63
2023/03/11 01:33:19;;;;;;;14.98;4.97;;;;;;;11.86;93.86;94593.75;5093396;28;20097;-63
2023/03/11 01:35:48;;;;;;;16.58;5.40;;;;;;;11.84;94.22;94590.41;5093364;28;20055;-62
2023/03/11 01:38:16;;;;;;;15.40;5.88;;;;;;;11.74;95.23;94587.63;5093395;28;20043;-63
2023/03/11 01:40:45;;;;;;;13.95;5.72;;;;;;;11.80;94.78;94578.47;5093336;28;20048;-63
2023/03/11 01:43:53;;;;;;;17.23;5.07;;;;;;;11.85;94.17;94569.34;5093290;28;20048;-63
2023/03/11 01:46:24;;;;;;;13.35;4.85;;;;;;;11.86;93.60;94572.78;5087207;28;20054;-63
2023/03/11 01:48:53;;;;;;;13.15;4.60;;;;;;;11.81;94.01;94570.50;5092831;28;20447;-63
2023/03/11 01:51:25;;;;;;;11.25;4.93;;;;;;;11.75;94.65;94566.53;5093335;28;20135;-62
2023/03/11 01:53:53;;;;;;;12.75;4.97;;;;;;;11.70;94.62;94565.22;5093193;28;20485;-63
2023/03/11 01:56:21;;;;;;;12.02;4.78;;;;;;;11.77;94.70;94569.06;5093172;28;20048;-63
2023/03/11 01:58:51;;;;;;;13.18;5.28;;;;;;;11.75;95.13;94568.34;5093058;28;20066;-63
2023/03/11 02:01:19;;;;;;;16.92;5.63;;;;;;;11.79;94.40;94566.31;5093065;28;20048;-63
2023/03/11 02:03:48;;;;;;;21.52;5.05;;;;;;;11.85;94.38;94564.09;5093042;28;20127;-63
2023/03/11 02:06:18;;;;;;;14.05;5.07;;;;;;;11.86;93.92;94552.66;5093082;28;20477;-62
2023/03/11 02:08:45;;;;;;;16.67;4.88;;;;;;;11.80;93.81;94555.72;5093302;28;20074;-62
2023/03/11 02:11:18;;;;;;;12.35;5.30;;;;;;;11.79;94.30;94554.06;5092923;28;20086;-63
2023/03/11 02:13:46;;;;;;;15.70;6.05;;;;;;;11.78;93.92;94562.88;5092915;28;20052;-62
2023/03/11 02:16:14;;;;;;;19.98;5.78;;;;;;;11.74;94.45;94554.41;5092993;28;20538;-62
2023/03/11 02:18:42;;;;;;;19.50;5.03;;;;;;;11.80;94.24;94549.69;5093036;28;20050;-63
2023/03/11 02:21:22;;;;;;;21.20;5.82;;;;;;;11.79;94.02;94540.97;5093076;28;20052;-62
2023/03/11 02:23:58;;;;;;;14.55;5.07;;;;;;;11.83;93.87;94545.03;5093008;28;20127;-63
2023/03/11 02:26:33;;;;;;;14.00;5.20;;;;;;;11.78;93.93;94559.41;5092860;28;20125;-63
2023/03/11 02:29:06;;;;;;;13.63;5.65;;;;;;;11.77;94.29;94548.09;5092765;28;20048;-62
2023/03/11 02:31:34;;;;;;;10.15;5.32;;;;;;;11.77;93.88;94555.94;5092697;28;20075;-62
2023/03/11 02:34:04;;;;;;;13.20;5.22;;;;;;;11.77;94.16;94535.00;5092809;28;20127;-63
2023/03/11 02:36:34;;;;;;;15.30;5.57;;;;;;;11.74;94.42;94530.03;5092790;28;20075;-63
2023/03/11 02:39:01;;;;;;;12.13;4.47;;;;;;;11.69;94.33;94519.88;5092781;28;20040;-62
2023/03/11 02:41:30;;;;;;;13.10;5.53;;;;;;;11.70;94.23;94526.78;5092774;28;20584;-63
2023/03/11 02:43:58;;;;;;;15.73;5.28;;;;;;;11.72;94.05;94539.75;5092719;28;20048;-63
2023/03/11 02:46:27;;;;;;;17.08;5.28;;;;;;;11.74;93.62;94520.38;5092751;28;20048;-63
2023/03/11 02:48:56;;;;;;;15.05;5.57;;;;;;;11.79;92.91;94517.41;5092428;28;20052;-63
2023/03/11 02:51:23;;;;;;;17.25;5.72;;;;;;;11.80;92.45;94515.63;5092631;28;20076;-63
2023/03/11 02:53:54;;;;;;;9.65;5.10;;;;;;;11.84;91.62;94517.06;5092597;28;20048;-63
2023/03/11 02:56:21;;;;;;;11.05;5.25;;;;;;;11.84;91.25;94525.75;5092702;28;20071;-63
2023/03/11 02:58:48;;;;;;;15.55;4.80;;;;;;;11.87;91.28;94535.97;5093769;28;20082;-63
2023/03/11 03:01:15;;;;;;;17.67;5.72;;;;;;;11.88;91.07;94535.06;5096335;28;20059;-63
2023/03/11 03:03:44;;;;;;;16.25;5.72;;;;;;;11.86;91.10;94542.19;5096445;28;20048;-63
2023/03/11 03:06:11;;;;;;;16.52;6.03;;;;;;;11.90;90.76;94541.94;5096188;28;20453;-63
2023/03/11 03:08:38;;;;;;;15.05;5.80;;;;;;;11.91;90.84;94544.44;5096040;28;20040;-62
2023/03/11 03:11:06;;;;;;;18.27;7.78;;;;;;;11.92;90.87;94537.44;5096085;28;20048;-63
2023/03/11 03:13:33;;;;;;;12.60;6.22;;;;;;;11.96;90.93;94544.13;5096122;28;20055;-62
2023/03/11 03:16:00;;;;;;;12.60;5.28;;;;;;;11.96;90.77;94551.97;5095993;28;20040;-63
2023/03/11 03:18:28;;;;;;;19.17;7.18;;;;;;;11.97;90.66;94541.38;5095890;28;20048;-63
2023/03/11 03:20:56;;;;;;;13.50;5.55;;;;;;;12.00;89.96;94530.66;5095933;28;20122;-62
2023/03/11 03:23:23;;;;;;;16.27;6.10;;;;;;;11.95;90.06;94529.34;5096063;28;20052;-63
2023/03/11 03:25:51;;;;;;;13.52;6.10;;;;;;;11.98;89.85;94524.69;5095876;28;20075;-62
2023/03/11 03:28:18;;;;;;;14.70;5.90;;;;;;;12.03;89.26;94529.59;5095696;28;20098;-62
2023/03/11 03:30:45;;;;;;;19.23;6.20;;;;;;;12.06;88.77;94531.97;5095768;28;20052;-62
2023/03/11 03:33:12;;;;;;;12.95;5.13;;;;;;;12.05;88.59;94525.09;5095462;28;20105;-62
2023/03/11 03:35:42;;;;;;;12.95;4.93;;;;;;;12.04;88.27;94533.88;5095563;28;20102;-63
2023/03/11 03:38:10;;;;;;;12.05;5.18;;;;;;;11.97;88.28;94522.19;5095529;28;20052;-62
2023/03/11 03:40:37;;;;;;;9.43;5.22;;;;;;;11.90;88.15;94523.59;5095536;28;20048;-62
2023/03/11 03:43:05;;;;;;;11.52;5.45;;;;;;;11.78;88.07;94518.34;5095536;28;20390;-62
2023/03/11 03:45:32;;;;;;;19.23;4.32;;;;;;;11.76;88.43;94525.47;5095556;28;20130;-63
2023/03/11 03:47:59;;;;;;;16.15;4.32;;;;;;;11.68;87.35;94523.44;5095180;28;20455;-63
2023/03/11 03:50:26;;;;;;;10.45;4.72;;;;;;;11.69;88.59;94525.13;5095262;28;20079;-63
2023/03/11 03:52:53;;;;;;;14.32;5.90;;;;;;;11.63;90.26;94513.28;5095282;28;20056;-63
2023/03/11 03:55:21;;;;;;;12.07;5.10;;;;;;;11.67;90.20;94513.06;5095293;28;20083;-63
2023/03/11 03:57:48;;;;;;;13.20;5.38;;;;;;;11.64;89.67;94524.63;5095275;28;20048;-63
2023/03/11 04:00:16;;;;;;;21.50;6.00;;;;;;;11.64;89.49;94524.63;5095205;28;20569;-63
2023/03/11 04:02:43;;;;;;;9.50;4.97;;;;;;;11.59;89.85;94524.13;5095093;28;20105;-63
2023/03/11 04:05:10;;;;;;;11.88;5.10;;;;;;;11.63;89.92;94529.00;5094976;28;20074;-63
2023/03/11 04:07:37;;;;;;;13.52;5.00;;;;;;;11.68;88.87;94523.44;5095096;28;20052;-63
2023/03/11 04:10:06;;;;;;;16.80;5.93;;;;;;;11.71;88.92;94517.97;5094540;28;20464;-63
2023/03/11 04:12:34;;;;;;;15.48;6.07;;;;;;;11.74;89.12;94515.13;5094869;28;20486;-62
2023/03/11 04:15:01;;;;;;;9.75;4.63;;;;;;;11.72;88.94;94506.56;5094774;28;20093;-63
2023/03/11 04:17:28;;;;;;;11.60;3.72;;;;;;;11.75;88.22;94493.22;5094958;28;20044;-63
2023/03/11 04:19:55;;;;;;;10.73;3.78;;;;;;;11.73;88.06;94491.66;5094714;28;20436;-63
2023/03/11 04:22:23;;;;;;;14.48;4.60;;;;;;;11.62;86.86;94488.06;5094696;28;20040;-63
2023/03/11 04:24:50;;;;;;;12.43;4.43;;;;;;;11.57;87.82;94489.38;5094665;28;20056;-63
2023/03/11 04:27:17;;;;;;;10.40;4.07;;;;;;;11.53;87.40;94482.69;5094573;28;20097;-63
2023/03/11 04:29:46;;;;;;;12.20;4.05;;;;;;;11.47;86.79;94471.72;5094405;28;20095;-63
2023/03/11 04:32:13;;;;;;;14.77;4.78;;;;;;;11.42;88.03;94473.88;5094455;28;20409;-63
2023/03/11 04:34:40;;;;;;;14.73;4.38;;;;;;;11.44;87.82;94473.75;5094502;28;20043;-63
2023/03/11 04:37:08;;;;;;;12.98;4.72;;;;;;;11.43;88.01;94474.69;5094475;28;20413;-63
2023/03/11 04:39:35;;;;;;;10.65;4.05;;;;;;;11.37;86.88;94491.69;5094297;28;20048;-63
2023/03/11 04:42:02;;;;;;;14.38;5.38;;;;;;;11.24;86.60;94497.00;5094278;28;20072;-63
2023/03/11 04:44:29;;;;;;;10.23;4.18;;;;;;;11.25;86.40;94489.03;5094318;28;20555;-63
2023/03/11 04:46:57;;;;;;;10.05;4.30;;;;;;;11.29;86.81;94494.84;5094193;28;20056;-63
2023/03/11 04:49:27;;;;;;;10.85;4.47;;;;;;;11.34;86.90;94492.75;5093992;28;20048;-63
2023/03/11 04:51:54;;;;;;;9.60;4.30;;;;;;;11.36;87.24;94503.09;5094068;28;20079;-63
2023/03/11 04:54:21;;;;;;;10.38;4.50;;;;;;;11.37;87.28;94517.84;5094090;28;20482;-62
2023/03/11 04:56:48;;;;;;;11.82;5.13;;;;;;;11.43;87.74;94513.94;5094101;28;20048;-63
2023/03/11 04:59:16;;;;;;;11.18;4.13;;;;;;;11.48;85.99;94514.47;5094002;28;20500;-63
2023/03/11 05:01:43;;;;;;;8.95;4.35;;;;;;;11.45;86.51;94515.53;5093956;28;20066;-62
2023/03/11 05:04:11;;;;;;;9.50;4.35;;;;;;;11.43;86.40;94514.78;5093778;28;20044;-63
2023/03/11 05:06:39;;;;;;;15.93;5.00;;;;;;;11.40;87.26;94515.00;5094002;28;20506;-63
2023/03/11 05:09:06;;;;;;;10.32;4.68;;;;;;;11.47;88.15;94521.47;5093830;28;20097;-63
2023/03/11 05:11:33;;;;;;;12.93;4.03;;;;;;;11.50;87.42;94516.00;5093823;28;20101;-63
2023/03/11 05:14:00;;;;;;;17.00;5.18;;;;;;;11.55;86.84;94514.81;5093544;28;20047;-63
2023/03/11 05:16:28;;;;;;;14.50;4.07;;;;;;;11.56;86.95;94513.91;5093978;28;20401;-63
2023/03/11 05:18:55;;;;;;;15.13;5.18;;;;;;;11.58;86.82;94525.06;5093713;28;20105;-63
2023/03/11 05:21:23;;;;;;;11.07;4.32;;;;;;;11.60;86.67;94525.81;5093107;28;20048;-63
2023/03/11 05:23:51;;;;;;;13.75;5.35;;;;;;;11.65;86.61;94528.09;5093539;28;20062;-63
2023/03/11 05:26:18;;;;;;;15.75;5.20;;;;;;;11.67;87.45;94521.78;5093474;28;20478;-63
2023/03/11 05:28:45;;;;;;;9.10;3.65;;;;;;;11.77;87.63;94529.75;5093720;28;20501;-63
2023/03/11 05:31:12;;;;;;;7.63;4.22;;;;;;;11.80;87.37;94526.91;5093424;28;20048;-63
2023/03/11 05:33:40;;;;;;;13.48;3.50;;;;;;;11.85;87.30;94529.19;5093437;28;20064;-63
2023/03/11 05:36:09;;;;;;;14.90;4.20;;;;;;;11.85;87.08;94527.41;5093321;28;20048;-63
2023/03/11 05:38:38;;;;;;;17.88;5.07;;;;;;;11.85;87.35;94519.56;5093564;28;20048;-63
2023/03/11 05:41:06;;;;;;;10.95;4.43;;;;;;;11.87;87.21;94524.69;5093152;28;20048;-63
2023/03/11 05:43:33;;;;;;;10.95;4.45;;;;;;;11.90;87.12;94523.59;5093256;28;20493;-63
2023/03/11 05:46:00;;;;;;;13.70;5.10;;;;;;;11.91;87.40;94520.03;5093331;28;20048;-64
2023/03/11 05:48:27;;;;;;;15.27;5.93;;;;;;;11.92;87.52;94525.16;5093135;28;20512;-63
2023/03/11 05:50:54;;;;;;;17.35;5.65;;;;;;;11.96;87.69;94529.25;5093325;28;20383;-63
2023/03/11 05:53:24;;;;;;;13.38;5.85;;;;;;;11.96;87.85;94524.00;5093105;28;20060;-63
2023/03/11 05:55:58;;;;;;;18.67;5.65;;;;;;;11.97;87.94;94519.56;5093192;28;20071;-63
2023/03/11 05:58:25;;;;;;;8.32;4.53;;;;;;;11.99;87.93;94525.53;5093125;28;20060;-63
2023/03/11 06:00:53;;;;;;;14.27;5.25;;;;;;;11.97;88.29;94516.94;5093181;28;20050;-64
2023/03/11 06:03:20;;;;;;;18.52;5.75;;;;;;;12.01;88.13;94515.75;5093217;28;20106;-63
2023/03/11 06:05:49;;;;;;;20.02;4.97;;;;;;;12.02;88.51;94504.34;5093320;28;20048;-63
2023/03/11 06:08:17;;;;;;;14.52;4.97;;;;;;;12.01;88.59;94515.75;5093064;28;20044;-64
2023/03/11 06:10:44;;;;;;;14.82;6.60;;;;;;;11.98;88.69;94516.84;5093121;28;20048;-63
2023/03/11 06:13:13;;;;;;;11.68;5.40;;;;;;;11.97;89.16;94509.09;5093177;28;20060;-63
2023/03/11 06:15:40;;;;;;;15.80;5.70;;;;;;;12.03;90.03;94498.16;5093022;28;20128;-63
2023/03/11 06:18:07;;;;;;;13.38;5.70;;;;;;;12.04;90.59;94499.81;5093053;28;20051;-63
2023/03/11 06:20:36;;;;;;;21.52;5.97;;;;;;;12.07;90.43;94491.75;5093337;28;20116;-63
2023/03/11 06:23:03;;;;;;;8.90;4.65;;;;;;;12.12;90.31;94483.53;5093034;28;20405;-63
2023/03/11 06:25:30;;;;;;;14.48;5.32;;;;;;;12.13;90.61;94490.44;5092885;28;20052;-63
2023/03/11 06:27:58;;;;;;;8.52;4.07;;;;;;;12.19;89.63;94486.53;5092904;28;20558;-63
2023/03/11 06:30:26;;;;;;;11.57;3.95;;;;;;;12.29;88.19;94487.50;5092860;28;20048;-64
2023/03/11 06:32:55;;;;;;;12.43;4.38;;;;;;;12.43;87.94;94494.25;5093986;28;20072;-64
2023/03/11 06:35:22;;;;;;;10.60;4.50;;;;;;;12.57;87.89;94480.06;5096716;28;20044;-63
2023/03/11 06:37:49;;;;;;;9.60;3.80;;;;;;;12.70;87.56;94481.75;5096924;28;20044;-63
2023/03/11 06:40:17;;;;;;;9.98;4.10;;;;;;;12.85;87.79;94490.16;5096685;28;20052;-64
2023/03/11 06:42:46;;;;;;;9.27;4.25;;;;;;;12.96;86.36;94487.53;5096566;28;20512;-64
2023/03/11 06:45:14;;;;;;;12.88;4.95;;;;;;;13.07;85.14;94493.69;5096600;28;20486;-63
2023/03/11 06:47:43;;;;;;;17.98;5.43;;;;;;;13.16;84.76;94498.19;5096520;28;20131;-64
2023/03/11 06:50:12;;;;;;;12.93;4.55;;;;;;;13.18;85.23;94498.91;5096186;28;20040;-63
2023/03/11 06:52:41;;;;;;;7.53;4.22;;;;;;;13.24;85.78;94501.03;5096347;28;20135;-63
2023/03/11 06:55:09;;;;;;;6.55;3.67;;;;;;;13.51;83.80;94496.28;5096650;28;20044;-63
2023/03/11 06:57:38;;;;;;;6.63;3.58;;;;;;;13.78;83.09;94492.34;5096442;28;20196;-63
2023/03/11 07:00:15;;;;;;;7.68;3.05;;;;;;;14.10;80.39;94487.97;5096304;28;20059;-63
2023/03/11 07:02:47;;;;;;;6.60;2.65;;;;;;;14.65;77.77;94492.91;5096268;28;20486;-63
2023/03/11 07:05:16;;;;;;;3.53;2.17;;;;;;;15.40;71.89;94477.66;5095927;28;20048;-63
2023/03/11 07:07:43;;;;;;;7.15;2.63;;;;;;;16.61;68.41;94470.19;5095906;28;20055;-63
2023/03/11 07:10:12;;;;;;;8.55;2.10;;;;;;;17.86;62.38;94463.50;5096179;28;20097;-64
2023/03/11 07:12:40;;;;;;;2.42;1.70;;;;;;;19.08;58.72;94470.56;5096054;28;20052;-63
2023/03/11 07:15:10;;;;;;;4.32;1.83;;;;;;;19.79;55.87;94466.69;5096366;28;20122;-63
2023/03/11 07:17:41;;;;;;;4.85;2.45;;;;;;;20.38;53.14;94465.63;5096028;28;20048;-63
2023/03/11 07:20:11;;;;;;;;;;;;;;;20.82;48.80;94459.00;5096291;28;20052;-62
2023/03/11 07:22:38;;;;;;;5.93;2.20;;;;;;;20.75;48.95;94451.91;5096139;28;20361;-62
2023/03/11 07:25:06;;;;;;;4.50;2.40;;;;;;;20.29;47.76;94450.75;5095880;28;20044;-63
2023/03/11 07:27:33;;;;;;;3.35;1.50;;;;;;;20.22;47.37;94453.22;5095773;28;20075;-63
2023/03/11 07:30:01;;;;;;;4.47;2.03;;;;;;;19.86;47.79;94450.94;5095754;28;20051;-63
2023/03/11 07:32:29;;;;;;;4.13;2.40;;;;;;;19.56;48.44;94452.28;5095846;28;20044;-63
2023/03/11 07:34:56;;;;;;;3.55;1.70;;;;;;;19.28;48.87;94441.16;5095781;28;20101;-62
2023/03/11 07:37:26;;;;;;;5.03;1.98;;;;;;;19.07;50.60;94447.72;5095754;28;20470;-62
2023/03/11 07:39:54;;;;;;;1.55;1.45;;;;;;;18.87;50.90;94447.97;5095479;28;20051;-63
2023/03/11 07:42:23;;;;;;;3.55;1.77;;;;;;;18.14;52.76;94439.56;5095662;28;20048;-63
2023/03/11 07:44:51;;;;;;;3.45;1.90;;;;;;;17.75;54.11;94446.06;5094656;28;20097;-63
2023/03/11 07:47:18;;;;;;;4.10;1.77;;;;;;;17.38;52.48;94454.03;5095697;28;20043;-62
2023/03/11 07:49:46;;;;;;;5.45;2.13;;;;;;;16.96;53.33;94454.59;5095277;28;20423;-62
2023/03/11 07:52:13;;;;;;;6.35;1.92;;;;;;;16.83;54.13;94458.44;5095313;28;20447;-62
2023/03/11 07:54:44;;;;;;;7.22;2.00;;;;;;;16.62;55.76;94456.03;5095336;28;20060;-62
2023/03/11 07:57:15;;;;;;;3.30;2.08;;;;;;;16.65;54.67;94451.28;5095357;28;20493;-63
2023/03/11 07:59:43;;;;;;;3.70;1.90;;;;;;;16.65;56.66;94450.47;5095282;28;20059;-62
2023/03/11 08:02:11;;;;;;;4.43;2.00;;;;;;;16.56;55.87;94452.19;5095176;28;20075;-62
2023/03/11 08:04:39;;;;;;;7.38;2.28;;;;;;;16.48;56.03;94447.63;5094934;28;20044;-63
2023/03/11 08:07:06;;;;;;;3.38;2.05;;;;;;;16.45;57.47;94441.81;5095105;28;20504;-62
2023/03/11 08:09:34;;;;;;;2.42;1.83;;;;;;;16.45;56.59;94447.06;5095079;28;20502;-63
2023/03/11 08:12:05;;;;;;;4.07;1.85;;;;;;;16.54;56.05;94448.84;5094859;28;20087;-63
2023/03/11 08:14:32;;;;;;;5.57;1.65;;;;;;;16.62;54.16;94442.84;5094705;28;20051;-63
2023/03/11 08:16:59;;;;;;;3.15;1.40;;;;;;;16.39;54.91;94449.34;5094807;28;20047;-63
2023/03/11 08:19:26;;;;;;;8.35;1.73;;;;;;;16.63;53.48;94455.03;5094810;28;20173;-62
2023/03/11 08:21:54;;;;;;;4.45;1.70;;;;;;;16.61;53.80;94460.47;5094730;28;20048;-63
2023/03/11 08:24:21;;;;;;;5.90;1.90;;;;;;;16.69;53.37;94462.38;5094792;28;20529;-63
2023/03/11 08:26:48;;;;;;;3.28;1.70;;;;;;;16.52;52.35;94456.06;5094667;28;20048;-63
2023/03/11 08:29:17;;;;;;;4.40;1.90;;;;;;;16.49;52.18;94459.00;5094632;28;20059;-63
2023/03/11 08:31:44;;;;;;;5.85;1.95;;;;;;;16.61;52.90;94455.19;5094573;28;20135;-63
2023/03/11 08:34:12;;;;;;;2.55;1.98;;;;;;;16.48;51.49;94460.81;5094653;28;20131;-62
2023/03/11 08:36:39;;;;;;;4.95;2.40;;;;;;;16.47;52.07;94458.31;5094407;28;20082;-62
2023/03/11 08:39:06;;;;;;;1.63;1.15;;;;;;;16.18;52.91;94457.47;5094642;28;20078;-62
2023/03/11 08:41:34;;;;;;;3.88;1.77;;;;;;;16.40;53.49;94455.41;5094249;28;20044;-63
2023/03/11 08:44:01;;;;;;;3.15;1.60;;;;;;;16.59;52.25;94454.53;5094535;28;20180;-62
2023/03/11 08:46:32;;;;;;;3.42;1.63;;;;;;;16.93;52.85;94451.28;5094247;28;20087;-63
2023/03/11 08:49:00;;;;;;;2.60;1.63;;;;;;;17.16;52.06;94450.03;5094115;28;20131;-63
2023/03/11 08:51:28;;;;;;;3.05;1.52;;;;;;;17.46;51.36;94452.44;5094183;28;20051;-63
2023/03/11 08:53:56;;;;;;;4.20;1.33;;;;;;;17.55;48.42;94448.91;5093995;28;20052;-63
2023/03/11 08:56:24;;;;;;;1.30;1.10;;;;;;;17.49;48.03;94455.59;5093088;28;20117;-62
2023/03/11 08:58:51;;;;;;;3.08;1.40;;;;;;;17.65;49.62;94440.88;5094041;28;20054;-63
2023/03/11 09:01:20;;;;;;;2.05;1.40;;;;;;;17.87;46.63;94444.00;5094119;28;20059;-63
2023/03/11 09:03:48;;;;;;;1.30;1.20;;;;;;;17.94;47.65;94437.09;5094249;28;20052;-63
2023/03/11 09:06:17;;;;;;;1.85;1.00;;;;;;;18.06;47.14;94425.28;5093923;28;20055;-63
2023/03/11 09:08:45;;;;;;;2.17;1.20;;;;;;;18.25;45.54;94435.81;5093886;28;20055;-63
2023/03/11 09:11:13;;;;;;;1.23;0.90;;;;;;;18.50;43.76;94433.28;5093984;28;20052;-63
2023/03/11 09:13:41;;;;;;;1.35;1.10;;;;;;;18.15;42.34;94425.38;5093831;28;20054;-62
2023/03/11 09:16:09;;;;;;;1.27;0.90;;;;;;;17.73;43.11;94429.53;5093812;28;20095;-62
2023/03/11 09:18:36;;;;;;;0.88;0.80;;;;;;;17.65;44.31;94417.09;5093773;28;20044;-62
2023/03/11 09:21:05;;;;;;;0.98;0.98;;;;;;;17.84;44.89;94418.69;5093783;28;20509;-62
2023/03/11 09:23:32;;;;;;;2.53;0.95;;;;;;;17.52;43.33;94418.31;5093633;28;20045;-62
2023/03/11 09:25:59;;;;;;;1.13;1.00;;;;;;;17.23;43.50;94410.63;5093550;28;20048;-62
2023/03/11 09:28:27;;;;;;;1.85;0.95;;;;;;;17.07;44.43;94404.25;5093487;28;20048;-62
2023/03/11 09:30:54;;;;;;;2.45;1.10;;;;;;;16.92;44.84;94394.16;5093483;28;20087;-62
2023/03/11 09:33:21;;;;;;;1.25;1.13;;;;;;;16.91;45.86;94383.75;5093474;28;20397;-63
2023/03/11 09:35:49;;;;;;;1.73;1.10;;;;;;;16.91;46.17;94383.75;5093473;28;20135;-63
2023/03/11 09:38:23;;;;;;;1.85;1.33;;;;;;;17.08;46.32;94387.41;5093341;28;20047;-62
2023/03/11 09:40:59;;;;;;;3.30;1.05;;;;;;;17.15;46.04;94387.63;5093367;28;20131;-63
2023/03/11 09:43:48;;;;;;;0.60;0.57;;;;;;;17.22;45.88;94387.84;5093361;28;20051;-63
2023/03/11 09:46:55;;;;;;;1.15;1.05;;;;;;;16.95;44.53;94389.56;5092877;28;20060;-62
2023/03/11 09:49:36;;;;;;;1.15;1.05;;;;;;;16.84;44.73;94380.03;5093217;28;20570;-62
2023/03/11 09:52:09;;;;;;;1.13;1.02;;;;;;;16.60;45.54;94377.00;5093239;28;20105;-62
2023/03/11 09:54:43;;;;;;;3.42;0.88;;;;;;;16.25;46.36;94373.31;5093200;28;20047;-62
2023/03/11 09:57:16;;;;;;;2.15;1.10;;;;;;;16.27;46.13;94374.00;5093189;28;20044;-62
2023/03/11 09:59:45;;;;;;;2.35;1.30;;;;;;;16.31;46.06;94379.81;5093080;28;20044;-62
2023/03/11 10:02:16;;;;;;;6.47;1.27;;;;;;;16.33;46.53;94378.69;5093195;28;20123;-62
2023/03/11 10:04:51;;;;;;;3.55;0.88;;;;;;;16.51;46.00;94380.53;5093184;28;20048;-63
2023/03/11 10:07:23;;;;;;;3.58;1.50;;;;;;;16.54;46.08;94378.44;5093736;28;20155;-62
2023/03/11 10:09:55;;;;;;;3.35;2.33;;;;;;;16.49;46.22;94380.69;5097311;28;20117;-63
2023/03/11 10:12:35;;;;;;;4.30;3.30;;;;;;;16.60;45.87;94376.19;5097184;28;20044;-62
2023/03/11 10:15:16;;;;;;;1.92;1.10;;;;;;;16.64;45.08;94377.53;5097159;28;20052;-63
2023/03/11 10:18:01;;;;;;;3.30;0.75;;;;;;;16.81;45.31;94375.91;5097197;28;20093;-63
2023/03/11 10:20:37;;;;;;;1.77;1.08;;;;;;;16.80;46.32;94372.44;5097194;28;20079;-62
2023/03/11 10:23:16;;;;;;;2.38;1.48;;;;;;;16.81;45.60;94378.53;5096945;28;20044;-63
2023/03/11 10:25:57;;;;;;;1.73;1.35;;;;;;;16.71;45.76;94368.06;5096908;28;20413;-62
2023/03/11 10:28:30;;;;;;;3.08;1.45;;;;;;;16.82;46.21;94369.63;5096995;28;20048;-63
2023/03/11 10:31:03;;;;;;;2.13;1.10;;;;;;;16.82;45.80;94368.81;5097143;28;20113;-62
2023/03/11 10:33:38;;;;;;;1.92;1.17;;;;;;;16.89;45.70;94368.06;5096874;28;20048;-63
2023/03/11 10:36:11;;;;;;;2.58;1.55;;;;;;;16.87;45.81;94371.81;5096717;28;20562;-63
2023/03/11 10:38:45;;;;;;;4.78;2.10;;;;;;;16.72;45.83;94369.72;5096718;28;20044;-63
2023/03/11 10:41:22;;;;;;;1.52;1.42;;;;;;;16.68;46.88;94371.81;5096692;28;20135;-63
2023/03/11 10:43:55;;;;;;;1.55;1.30;;;;;;;16.63;45.96;94376.72;5096618;28;20048;-62
2023/03/11 10:46:30;;;;;;;4.70;1.45;;;;;;;16.69;46.65;94372.66;5096625;28;20052;-63
2023/03/11 10:48:57;;;;;;;1.63;1.30;;;;;;;16.74;47.52;94370.38;5096391;28;20105;-62
2023/03/11 10:51:27;;;;;;;1.42;1.33;;;;;;;16.73;46.87;94374.00;5096581;28;20142;-63
2023/03/11 10:53:55;;;;;;;1.05;0.90;;;;;;;16.79;nan;94368.13;5096412;28;20048;-63
2023/03/11 10:56:31;;;;;;;1.00;0.85;;;;;;;16.91;46.73;94366.09;5096468;28;20074;-63
2023/03/11 10:59:01;;;;;;;1.02;0.93;;;;;;;17.03;44.23;94360.59;5096384;28;20044;-63
2023/03/11 11:01:30;;;;;;;0.90;0.90;;;;;;;17.08;44.90;94360.16;5096382;28;20048;-63
2023/03/11 11:04:01;;;;;;;1.02;0.90;;;;;;;17.10;44.41;94359.03;5096296;28;20044;-63
2023/03/11 11:06:30;;;;;;;1.10;1.00;;;;;;;17.06;45.30;94362.91;5096214;28;20452;-63
2023/03/11 11:09:06;;;;;;;2.88;1.13;;;;;;;17.04;45.49;94365.72;5096171;28;20071;-63
2023/03/11 11:11:35;;;;;;;1.17;1.00;;;;;;;17.05;45.69;94372.69;5096519;28;20066;-63
2023/03/11 11:14:02;;;;;;;5.05;1.30;;;;;;;16.93;45.70;94369.44;5096347;28;20048;-63
2023/03/11 11:16:30;;;;;;;1.80;1.00;;;;;;;16.68;47.41;94379.72;5096162;28;20048;-63
2023/03/11 11:19:03;;;;;;;1.17;1.08;;;;;;;16.61;49.99;94383.09;5095155;28;20044;-62
2023/03/11 11:21:32;;;;;;;2.00;1.02;;;;;;;16.49;53.25;94385.97;5095864;28;20079;-63
2023/03/11 11:24:18;;;;;;;2.10;1.83;;;;;;;16.11;57.63;94393.94;5095926;28;20066;-63
2023/03/11 11:27:05;;;;;;;6.80;1.77;;;;;;;15.63;57.45;94393.06;5096018;28;20567;-62
2023/03/11 11:29:34;;;;;;;6.13;2.28;;;;;;;15.38;59.57;94390.06;5095911;28;20452;-63
2023/03/11 11:32:17;;;;;;;5.75;1.80;;;;;;;15.20;58.49;94400.47;5095793;28;20052;-63
2023/03/11 11:34:55;;;;;;;5.22;2.70;;;;;;;15.08;62.70;94392.69;5095613;28;20048;-63
2023/03/11 11:37:25;;;;;;;3.10;1.60;;;;;;;14.89;61.02;94402.28;5095718;28;20131;-63
2023/03/11 11:39:56;;;;;;;6.22;1.27;;;;;;;14.63;63.16;94383.53;5095673;28;20044;-63